TRAVEL WEATHER INFO - USA

NOAA Site Locator - Search for Station Information

CITY Forecast Link METAR Identifier Last Updated Temperature Dew Point Humidity Pressure Wind Direction Wind Speed Wind Gust Weather Rain/hr Google Maps
Albuqueque WEATHER KABQ 09/25/2017 12:52 62.6 24.8 23 30.00 NNW 9 9 Few Clouds --- Albuquerque, NM Map
Anchorage WEATHER PAED 09/25/2017 13:17 46.4 46.4 100 29.83 --- 0 0 Overcast --- Anchorage, AK Map
Atlanta WEATHER KATL 09/25/2017 12:52 84.2 60.8 45 30.04 E 11 11 Few Clouds --- ATLANTA, GA Map
Birmingham WEATHER KBHM 09/25/2017 12:53 84.2 66.2 55 30.05 E 5 5 Broken Clouds --- Birmingham, AL Map
Boston WEATHER KBOS 09/25/2017 12:54 77.0 66.2 69 30.08 E 8 8 Few Clouds --- BOSTON, MA Map
Cheyenne WEATHER KCYS 09/25/2017 13:34 46.4 37.4 71 30.12 --- 5 5 Overcast --- Cheyenne, WY Map
Chicago O'Hare WEATHER KORD 09/25/2017 12:51 87.8 60.8 41 29.99 SSE 8 8 Few Clouds --- CHICAGO, IL Map
Colorado Springs WEATHER KCOS 09/25/2017 12:54 53.6 41.0 62 30.09 N 11 11 Broken Clouds --- Colo. Springs, CO Map
Dallas WEATHER KADS 09/25/2017 12:47 82.4 68.0 62 29.93 SSE 12 19 Broken Clouds --- Dallas, TX Map
Denver WEATHER KDEN 09/25/2017 13:15 46.4 42.8 87 30.10 NNE 11 11 --- DENVER, CO Map
Detroit WEATHER KDET 09/25/2017 12:53 86.0 64.4 49 30.05 N 0 0 Clear --- Detroit, MI Map
Dover WEATHER KDOV 09/25/2017 12:58 82.4 60.8 48 30.03 ENE 4 4 Few Clouds --- DOVER, DE Map
Fort Lauderdale WEATHER KFXE 09/25/2017 12:53 89.6 71.6 56 29.89 W 8 8 Few Clouds --- Fort Lauderdale, FL Map
Honolulu WEATHER PHNL 09/25/2017 12:53 75.2 66.2 74 29.97 N 3 3 Few Clouds --- Honolulu, HI Map
JFK Airport WEATHER KJFK 09/25/2017 12:51 82.4 62.6 51 30.07 S 8 8 Few Clouds --- JFK Airport, NYC Map
Key West WEATHER KEYW 09/25/2017 12:53 87.8 75.2 66 29.90 S 8 8 Clear --- Key West, FL Map
Los Angeles WEATHER KLAX 09/25/2017 12:53 78.8 32.0 18 29.86 N 0 0 Scattered Clouds --- Los Angeles, CA Map
Louisville WEATHER KSDF 09/25/2017 12:56 86.0 66.2 52 30.03 --- 0 0 Broken Clouds --- Louisville, KY Map
Minneapolis WEATHER KMSP 09/25/2017 13:35 60.8 57.2 88 29.99 NNE 6 6 Overcast --- Minneapolis, MN Map
Morgantown WEATHER KMGW 09/25/2017 12:53 80.6 64.4 58 30.12 --- 0 0 Clear --- Morgantown, WV Map
New Orleans WEATHER KNEW 09/25/2017 12:53 84.2 73.4 70 29.93 ENE 13 13 Broken Clouds --- New Orleans, LA Map
New York City WEATHER KNYC 09/25/2017 12:51 84.2 66.2 55 30.08 NE 5 5 Clear --- New York, NY Map
Omaha WEATHER KOMA 09/25/2017 13:10 64.4 62.6 94 29.94 N 6 6 Overcast 0.06 Omaha, NE Map
Philadelphia WEATHER KPHL 09/25/2017 12:54 87.8 66.2 49 30.04 ESE 5 5 Few Clouds --- Philadelphia, PA Map
Pittsburgh WEATHER KPIT 09/25/2017 12:51 82.4 64.4 55 30.10 SSW 5 5 Overcast --- Pittsburgh, PA Map
Seattle WEATHER KSEA 09/25/2017 13:39 59.0 53.6 82 30.12 S 8 8 Overcast --- Seattle, WA Map
San Francisco WEATHER KSFO 09/25/2017 12:56 66.2 53.6 64 29.95 NE 5 5 Few Clouds --- San Francisco, CA Map
Washington DC WEATHER KDCA 09/25/2017 12:52 87.8 66.2 49 30.04 NE 6 6 Broken Clouds --- Washington, DC Map